Time;durP1;ratioP1;P1;durP2;ratioP2;P2;SDS_P1;SDS_P2;PMS_P1;PMS_P2;Temp;Humidity;BMP_temperature;BMP_pressure;BME280_temperature;BME280_humidity;BME280_pressure;Samples;Min_cycle;Max_cycle;Signal;HPM_P1;HPM_P2
2022/08/27 00:00:18;;;;;;;2.45;2.35;;;;;;;;;;1877693;76;26654;-53
2022/08/27 00:02:47;;;;;;;2.25;2.15;;;;;;;;;;1864222;76;26790;-55
2022/08/27 00:05:16;;;;;;;2.33;2.22;;;;;;;;;;1864877;76;26634;-51
2022/08/27 00:07:43;;;;;;;2.40;2.30;;;;;;;;;;1875739;76;26304;-55
2022/08/27 00:10:12;;;;;;;2.27;2.17;;;;;;;;;;1878036;76;26729;-54
2022/08/27 00:12:40;;;;;;;2.27;2.27;;;;;;;;;;1871886;76;26245;-55
2022/08/27 00:15:08;;;;;;;2.40;2.30;;;;;;;;;;1876655;76;26776;-55
2022/08/27 00:17:35;;;;;;;2.15;2.05;;;;;;;;;;1878352;76;26822;-54
2022/08/27 00:20:04;;;;;;;2.40;2.30;;;;;;;;;;1870772;75;26330;-55
2022/08/27 00:22:31;;;;;;;2.47;2.37;;;;;;;;;;1867276;76;26223;-54
2022/08/27 00:24:58;;;;;;;2.25;2.17;;;;;;;;;;1863226;76;26273;-54
2022/08/27 00:27:26;;;;;;;2.40;2.30;;;;;;;;;;1857395;76;26222;-56
2022/08/27 00:29:53;;;;;;;2.20;2.20;;;;;;;;;;1860924;76;27386;-55
2022/08/27 00:32:20;;;;;;;2.40;2.30;;;;;;;;;;1858915;76;26253;-55
2022/08/27 00:34:48;;;;;;;2.60;2.50;;;;;;;;;;1865830;76;26335;-55
2022/08/27 00:37:15;;;;;;;2.90;2.72;;;;;;;;;;1855573;76;27459;-55
2022/08/27 00:39:42;;;;;;;2.50;2.40;;;;;;;;;;1868520;76;26288;-56
2022/08/27 00:42:10;;;;;;;2.30;2.25;;;;;;;;;;1852585;76;26334;-55
2022/08/27 00:44:38;;;;;;;2.50;2.40;;;;;;;;;;1855251;76;26276;-47
2022/08/27 00:47:06;;;;;;;2.52;2.42;;;;;;;;;;1844298;76;26755;-55
2022/08/27 00:49:38;;;;;;;2.30;2.20;;;;;;;;;;1863817;76;27521;-55
2022/08/27 00:52:07;;;;;;;2.50;2.40;;;;;;;;;;1868212;76;26338;-54
2022/08/27 00:54:34;;;;;;;2.50;2.40;;;;;;;;;;1868662;76;26355;-55
2022/08/27 00:57:02;;;;;;;2.58;2.47;;;;;;;;;;1855123;76;26190;-56
2022/08/27 00:59:31;;;;;;;2.40;2.20;;;;;;;;;;1876526;76;26330;-56
2022/08/27 01:02:24;;;;;;;2.42;2.33;;;;;;;;;;1875449;76;26253;-55
2022/08/27 01:04:30;;;;;;;2.40;2.30;;;;;;;;;;1853082;76;26297;-53
2022/08/27 01:06:58;;;;;;;2.47;2.37;;;;;;;;;;1858555;76;26270;-56
2022/08/27 01:09:25;;;;;;;2.42;2.33;;;;;;;;;;1870865;76;26246;-53
2022/08/27 01:11:54;;;;;;;2.67;2.58;;;;;;;;;;1852821;76;26261;-56
2022/08/27 01:14:21;;;;;;;2.60;2.50;;;;;;;;;;1872122;76;26785;-49
2022/08/27 01:16:53;;;;;;;2.47;2.37;;;;;;;;;;1857379;76;26261;-56
2022/08/27 01:19:34;;;;;;;2.15;2.10;;;;;;;;;;1874284;76;26335;-52
2022/08/27 01:22:09;;;;;;;2.55;2.45;;;;;;;;;;1854616;76;26306;-55
2022/08/27 01:24:38;;;;;;;2.45;2.35;;;;;;;;;;1877122;76;26763;-56
2022/08/27 01:27:06;;;;;;;2.70;2.60;;;;;;;;;;1871322;75;26261;-54
2022/08/27 01:29:34;;;;;;;2.52;2.42;;;;;;;;;;1866065;76;26261;-56
2022/08/27 01:32:06;;;;;;;2.70;2.60;;;;;;;;;;1858692;76;26328;-55
2022/08/27 01:34:34;;;;;;;2.60;2.50;;;;;;;;;;1849663;76;26280;-52
2022/08/27 01:37:01;;;;;;;2.65;2.55;;;;;;;;;;1868142;76;26674;-53
2022/08/27 01:39:28;;;;;;;2.17;2.17;;;;;;;;;;1867556;76;26370;-52
2022/08/27 01:41:57;;;;;;;2.80;2.70;;;;;;;;;;1849049;76;26264;-54
2022/08/27 01:44:24;;;;;;;2.50;2.40;;;;;;;;;;1838243;76;26300;-52
2022/08/27 01:46:51;;;;;;;2.40;2.30;;;;;;;;;;1847763;76;26242;-54
2022/08/27 01:49:19;;;;;;;2.60;2.50;;;;;;;;;;1861258;76;26261;-50
2022/08/27 01:51:46;;;;;;;2.60;2.50;;;;;;;;;;1847234;76;26378;-55
2022/08/27 01:54:13;;;;;;;2.62;2.42;;;;;;;;;;1845043;76;26252;-55
2022/08/27 01:56:40;;;;;;;2.52;2.42;;;;;;;;;;1845016;76;26252;-55
2022/08/27 01:59:08;;;;;;;2.55;2.45;;;;;;;;;;1832740;77;26724;-56
2022/08/27 02:01:35;;;;;;;2.50;2.40;;;;;;;;;;1847762;77;26339;-55
2022/08/27 02:04:03;;;;;;;2.50;2.40;;;;;;;;;;1845119;76;26273;-56
2022/08/27 02:06:30;;;;;;;2.65;2.55;;;;;;;;;;1857289;76;26202;-55
2022/08/27 02:08:58;;;;;;;2.72;2.50;;;;;;;;;;1850748;76;26313;-55
2022/08/27 02:11:26;;;;;;;2.60;2.50;;;;;;;;;;1850108;76;26268;-55
2022/08/27 02:13:53;;;;;;;2.58;2.37;;;;;;;;;;1843036;77;26288;-55
2022/08/27 02:16:20;;;;;;;2.50;2.40;;;;;;;;;;1842350;77;26251;-54
2022/08/27 02:18:48;;;;;;;2.72;2.62;;;;;;;;;;1840765;76;26903;-52
2022/08/27 02:21:16;;;;;;;2.60;2.50;;;;;;;;;;1849288;76;26338;-55
2022/08/27 02:23:44;;;;;;;2.30;2.20;;;;;;;;;;1844193;76;26562;-56
2022/08/27 02:26:12;;;;;;;2.30;2.20;;;;;;;;;;1827037;76;26353;-55
2022/08/27 02:28:39;;;;;;;2.65;2.55;;;;;;;;;;1834445;77;26283;-55
2022/08/27 02:31:06;;;;;;;2.40;2.30;;;;;;;;;;1844710;77;26232;-57
2022/08/27 02:33:34;;;;;;;2.52;2.42;;;;;;;;;;1830543;77;26750;-53
2022/08/27 02:36:01;;;;;;;2.30;2.20;;;;;;;;;;1844699;77;26253;-56
2022/08/27 02:38:28;;;;;;;2.52;2.42;;;;;;;;;;1844766;77;26275;-54
2022/08/27 02:40:56;;;;;;;2.60;2.40;;;;;;;;;;1841289;76;26768;-55
2022/08/27 02:43:23;;;;;;;2.58;2.47;;;;;;;;;;1819473;77;26763;-55
2022/08/27 02:45:50;;;;;;;2.75;2.65;;;;;;;;;;1823227;76;26208;-55
2022/08/27 02:48:18;;;;;;;2.25;2.25;;;;;;;;;;1842265;76;26763;-55
2022/08/27 02:50:45;;;;;;;2.58;2.47;;;;;;;;;;1850659;76;26331;-56
2022/08/27 02:53:13;;;;;;;2.60;2.50;;;;;;;;;;1833029;76;26330;-56
2022/08/27 02:55:40;;;;;;;2.30;2.20;;;;;;;;;;1845596;76;26241;-56
2022/08/27 02:58:08;;;;;;;2.27;2.22;;;;;;;;;;1832884;76;26216;-56
2022/08/27 03:00:35;;;;;;;2.50;2.40;;;;;;;;;;1836935;76;26909;-55
2022/08/27 03:03:02;;;;;;;2.60;2.50;;;;;;;;;;1837451;77;26260;-54
2022/08/27 03:05:30;;;;;;;2.55;2.45;;;;;;;;;;1827406;76;26342;-54
2022/08/27 03:07:58;;;;;;;2.52;2.42;;;;;;;;;;1846877;77;26284;-54
2022/08/27 03:10:25;;;;;;;2.67;2.58;;;;;;;;;;1872626;76;27467;-53
2022/08/27 03:12:53;;;;;;;2.55;2.45;;;;;;;;;;1864784;76;26308;-56
2022/08/27 03:15:20;;;;;;;2.60;2.50;;;;;;;;;;1845108;76;26272;-56
2022/08/27 03:20:33;;;;;;;2.50;2.40;;;;;;;;;;1842769;76;26265;-56
2022/08/27 03:23:00;;;;;;;2.40;2.30;;;;;;;;;;1837428;76;26264;-55
2022/08/27 03:25:28;;;;;;;2.40;2.35;;;;;;;;;;1840167;76;26270;-52
2022/08/27 03:27:55;;;;;;;2.80;2.70;;;;;;;;;;1830410;76;26298;-55
2022/08/27 03:30:23;;;;;;;2.60;2.50;;;;;;;;;;1834904;77;26223;-53
2022/08/27 03:32:50;;;;;;;2.50;2.40;;;;;;;;;;1832428;76;26489;-54
2022/08/27 03:35:18;;;;;;;2.70;2.60;;;;;;;;;;1838605;77;26256;-53
2022/08/27 03:37:46;;;;;;;2.42;2.33;;;;;;;;;;1845834;77;26334;-55
2022/08/27 03:40:14;;;;;;;2.58;2.47;;;;;;;;;;1850852;76;26230;-56
2022/08/27 03:42:41;;;;;;;2.60;2.50;;;;;;;;;;1857372;76;26311;-55
2022/08/27 03:45:09;;;;;;;2.83;2.62;;;;;;;;;;1874137;76;26284;-56
2022/08/27 03:47:37;;;;;;;2.80;2.70;;;;;;;;;;1871520;76;26802;-54
2022/08/27 03:50:05;;;;;;;2.50;2.40;;;;;;;;;;1852891;76;26249;-56
2022/08/27 03:52:33;;;;;;;2.47;2.40;;;;;;;;;;1871524;76;26229;-56
2022/08/27 03:55:00;;;;;;;2.55;2.45;;;;;;;;;;1854448;76;26836;-51
2022/08/27 03:57:28;;;;;;;2.33;2.25;;;;;;;;;;1877456;75;26201;-56
2022/08/27 03:59:55;;;;;;;2.70;2.60;;;;;;;;;;1860082;76;26548;-55
2022/08/27 04:02:23;;;;;;;2.70;2.60;;;;;;;;;;1860012;76;26283;-53
2022/08/27 04:04:50;;;;;;;2.80;2.70;;;;;;;;;;1863146;76;26745;-56
2022/08/27 04:07:18;;;;;;;2.40;2.30;;;;;;;;;;1861734;76;26716;-55
2022/08/27 04:09:45;;;;;;;2.83;2.55;;;;;;;;;;1872301;76;26270;-55
2022/08/27 04:12:12;;;;;;;2.70;2.50;;;;;;;;;;1863151;76;26735;-54
2022/08/27 04:14:39;;;;;;;4.83;2.75;;;;;;;;;;1855601;76;26839;-54
2022/08/27 04:17:07;;;;;;;2.70;2.50;;;;;;;;;;1875844;76;26269;-54
2022/08/27 04:19:34;;;;;;;2.67;2.58;;;;;;;;;;1866749;76;26253;-55
2022/08/27 04:22:05;;;;;;;2.65;2.55;;;;;;;;;;1866047;76;26283;-54
2022/08/27 04:24:33;;;;;;;2.40;2.30;;;;;;;;;;1860091;76;26673;-55
2022/08/27 04:27:01;;;;;;;2.60;2.50;;;;;;;;;;1851186;76;26251;-56
2022/08/27 04:29:29;;;;;;;2.58;2.47;;;;;;;;;;1875958;76;26253;-52
2022/08/27 04:31:56;;;;;;;2.58;2.47;;;;;;;;;;1877881;75;26320;-55
2022/08/27 04:34:24;;;;;;;2.60;2.50;;;;;;;;;;1850921;76;26323;-55
2022/08/27 04:36:52;;;;;;;2.50;2.40;;;;;;;;;;1874504;76;26240;-55
2022/08/27 04:39:20;;;;;;;2.70;2.60;;;;;;;;;;1872197;76;26316;-52
2022/08/27 04:41:50;;;;;;;2.60;2.50;;;;;;;;;;1875436;76;26277;-56
2022/08/27 04:44:18;;;;;;;2.62;2.52;;;;;;;;;;1865868;76;26783;-54
2022/08/27 04:46:46;;;;;;;2.45;2.35;;;;;;;;;;1862396;76;26311;-54
2022/08/27 04:49:14;;;;;;;2.80;2.70;;;;;;;;;;1876727;76;26324;-55
2022/08/27 04:51:42;;;;;;;2.90;2.80;;;;;;;;;;1872581;76;26244;-55
2022/08/27 04:54:10;;;;;;;2.92;2.83;;;;;;;;;;1873575;76;27002;-55
2022/08/27 04:56:37;;;;;;;2.90;2.80;;;;;;;;;;1865276;75;26256;-54
2022/08/27 04:59:06;;;;;;;2.80;2.70;;;;;;;;;;1850139;75;26256;-56
2022/08/27 05:01:34;;;;;;;2.70;2.60;;;;;;;;;;1866642;75;26221;-55
2022/08/27 05:04:02;;;;;;;2.70;2.60;;;;;;;;;;1873843;75;26323;-55
2022/08/27 05:06:29;;;;;;;2.80;2.60;;;;;;;;;;1851299;76;26287;-53
2022/08/27 05:08:57;;;;;;;2.90;2.80;;;;;;;;;;1863681;76;26809;-55
2022/08/27 05:11:28;;;;;;;2.92;2.83;;;;;;;;;;1868299;76;26253;-52
2022/08/27 05:13:54;;;;;;;2.72;2.62;;;;;;;;;;1865241;76;26320;-55
2022/08/27 05:16:22;;;;;;;2.70;2.60;;;;;;;;;;1869930;76;26277;-55
2022/08/27 05:18:50;;;;;;;2.80;2.70;;;;;;;;;;1862483;75;26248;-55
2022/08/27 05:21:25;;;;;;;2.77;2.67;;;;;;;;;;1872057;75;26568;-54
2022/08/27 05:23:54;;;;;;;2.60;2.50;;;;;;;;;;1875849;75;26245;-55
2022/08/27 05:26:21;;;;;;;3.08;2.98;;;;;;;;;;1870023;76;26257;-55
2022/08/27 05:28:48;;;;;;;3.05;2.90;;;;;;;;;;1867446;75;26326;-55
2022/08/27 05:31:18;;;;;;;3.08;2.87;;;;;;;;;;1864141;76;26194;-55
2022/08/27 05:33:45;;;;;;;2.80;2.70;;;;;;;;;;1869964;76;26266;-55
2022/08/27 05:36:25;;;;;;;3.02;2.83;;;;;;;;;;1864585;76;26297;-55
2022/08/27 05:38:53;;;;;;;4.70;3.02;;;;;;;;;;1865803;76;26367;-54
2022/08/27 05:41:24;;;;;;;3.33;3.12;;;;;;;;;;1871798;76;26760;-51
2022/08/27 05:43:52;;;;;;;3.52;3.33;;;;;;;;;;1861165;76;26264;-54
2022/08/27 05:46:21;;;;;;;3.70;3.25;;;;;;;;;;1870897;75;26278;-53
2022/08/27 05:48:49;;;;;;;3.55;3.35;;;;;;;;;;1820889;77;26391;-54
2022/08/27 05:51:17;;;;;;;4.70;3.33;;;;;;;;;;1826176;77;26265;-55
2022/08/27 05:53:45;;;;;;;8.20;3.50;;;;;;;;;;1796649;79;26613;-54
2022/08/27 05:56:13;;;;;;;3.55;3.35;;;;;;;;;;1812214;79;26373;-53
2022/08/27 06:01:26;;;;;;;10.78;4.10;;;;;;;;;;1822990;77;26296;-53
2022/08/27 06:03:54;;;;;;;9.70;4.35;;;;;;;;;;1843189;77;26253;-54
2022/08/27 06:06:21;;;;;;;5.90;3.62;;;;;;;;;;1828769;77;26599;-52
2022/08/27 06:08:50;;;;;;;8.15;3.65;;;;;;;;;;1793431;78;26369;-54
2022/08/27 06:11:18;;;;;;;5.15;3.58;;;;;;;;;;1813015;79;26263;-54
2022/08/27 06:13:46;;;;;;;4.70;4.05;;;;;;;;;;1821024;77;26512;-54
2022/08/27 06:16:15;;;;;;;4.75;4.33;;;;;;;;;;1813937;77;26263;-54
2022/08/27 06:18:43;;;;;;;8.50;5.10;;;;;;;;;;1810715;78;26283;-48
2022/08/27 06:21:11;;;;;;;7.62;5.87;;;;;;;;;;1833136;76;26372;-54
2022/08/27 06:23:39;;;;;;;7.05;5.67;;;;;;;;;;1856244;76;26368;-55
2022/08/27 06:26:07;;;;;;;8.48;5.87;;;;;;;;;;1863653;76;26721;-53
2022/08/27 06:28:35;;;;;;;9.05;5.80;;;;;;;;;;1852292;76;26822;-53
2022/08/27 06:31:03;;;;;;;8.98;6.25;;;;;;;;;;1851636;76;26245;-51
2022/08/27 06:33:31;;;;;;;7.80;5.70;;;;;;;;;;1850136;75;26272;-54
2022/08/27 06:35:59;;;;;;;7.78;5.97;;;;;;;;;;1859798;76;26268;-55
2022/08/27 06:38:27;;;;;;;9.45;6.35;;;;;;;;;;1858149;76;26289;-52
2022/08/27 06:40:55;;;;;;;9.33;6.20;;;;;;;;;;1850527;76;26790;-55
2022/08/27 06:43:22;;;;;;;12.50;6.35;;;;;;;;;;1836769;76;26826;-52
2022/08/27 06:45:50;;;;;;;6.58;5.87;;;;;;;;;;1829192;78;26322;-54
2022/08/27 06:48:18;;;;;;;8.75;6.22;;;;;;;;;;1835730;78;26304;-54
2022/08/27 06:50:46;;;;;;;7.20;6.20;;;;;;;;;;1835948;78;26513;-55
2022/08/27 06:53:13;;;;;;;11.48;6.40;;;;;;;;;;1833548;78;26252;-55
2022/08/27 06:55:42;;;;;;;11.80;6.62;;;;;;;;;;1834954;78;26311;-54
2022/08/27 06:58:09;;;;;;;8.83;6.15;;;;;;;;;;1830958;78;26362;-55
2022/08/27 07:00:36;;;;;;;11.25;6.55;;;;;;;;;;1836400;78;26240;-50
2022/08/27 07:03:05;;;;;;;11.95;6.30;;;;;;;;;;1835188;78;26779;-54
2022/08/27 07:05:34;;;;;;;8.73;6.92;;;;;;;;;;1823484;77;26306;-54
2022/08/27 07:08:01;;;;;;;7.50;6.50;;;;;;;;;;1829844;78;26323;-54
2022/08/27 07:10:29;;;;;;;12.33;6.55;;;;;;;;;;1829511;77;26252;-54
2022/08/27 07:12:56;;;;;;;9.15;6.60;;;;;;;;;;1835362;78;26252;-54
2022/08/27 07:15:24;;;;;;;8.03;6.58;;;;;;;;;;1835227;78;26252;-53
2022/08/27 07:17:51;;;;;;;9.75;6.65;;;;;;;;;;1839352;78;26253;-54
2022/08/27 07:20:20;;;;;;;10.50;6.75;;;;;;;;;;1835098;77;26216;-52
2022/08/27 07:22:48;;;;;;;10.08;6.50;;;;;;;;;;1834245;77;26300;-52
2022/08/27 07:25:21;;;;;;;9.13;6.42;;;;;;;;;;1832765;77;26946;-53
2022/08/27 07:27:46;;;;;;;7.95;6.60;;;;;;;;;;1824860;77;26347;-54
2022/08/27 07:30:14;;;;;;;8.95;6.67;;;;;;;;;;1830383;77;26886;-49
2022/08/27 07:32:42;;;;;;;8.70;6.55;;;;;;;;;;1821956;77;26342;-55
2022/08/27 07:35:10;;;;;;;12.25;6.17;;;;;;;;;;1822629;77;27374;-55
2022/08/27 07:37:37;;;;;;;7.95;6.30;;;;;;;;;;1815416;78;26264;-47
2022/08/27 07:40:06;;;;;;;9.55;6.25;;;;;;;;;;1819889;77;26565;-55
2022/08/27 07:45:19;;;;;;;8.33;6.17;;;;;;;;;;1841455;76;27462;-52
2022/08/27 07:47:46;;;;;;;9.98;6.58;;;;;;;;;;1832091;76;26267;-55
2022/08/27 07:50:14;;;;;;;8.95;6.33;;;;;;;;;;1828726;76;26360;-55
2022/08/27 07:52:44;;;;;;;11.28;6.30;;;;;;;;;;1829551;76;26267;-55
2022/08/27 07:55:12;;;;;;;13.53;6.78;;;;;;;;;;1830921;76;26334;-55
2022/08/27 07:57:40;;;;;;;7.53;6.35;;;;;;;;;;1836059;76;27251;-55
2022/08/27 08:00:09;;;;;;;13.45;5.95;;;;;;;;;;1827139;76;27502;-53
2022/08/27 08:02:37;;;;;;;8.78;5.78;;;;;;;;;;1834610;76;26370;-55
2022/08/27 08:05:05;;;;;;;9.80;6.47;;;;;;;;;;1829537;76;26263;-56
2022/08/27 08:07:34;;;;;;;9.43;6.10;;;;;;;;;;1823002;76;26278;-55
2022/08/27 08:10:01;;;;;;;8.28;6.40;;;;;;;;;;1825960;76;26733;-56
2022/08/27 08:12:30;;;;;;;9.68;6.00;;;;;;;;;;1829191;76;26835;-54
2022/08/27 08:14:57;;;;;;;7.65;6.15;;;;;;;;;;1818953;76;26750;-53
2022/08/27 08:17:25;;;;;;;8.88;6.05;;;;;;;;;;1824020;76;26728;-54
2022/08/27 08:19:52;;;;;;;7.75;6.45;;;;;;;;;;1829631;76;26293;-55
2022/08/27 08:22:20;;;;;;;7.67;6.12;;;;;;;;;;1818157;76;26299;-55
2022/08/27 08:24:47;;;;;;;11.00;6.15;;;;;;;;;;1825600;76;26263;-56
2022/08/27 08:27:14;;;;;;;8.15;5.78;;;;;;;;;;1822495;76;26273;-55
2022/08/27 08:29:42;;;;;;;10.70;6.60;;;;;;;;;;1826378;76;26550;-55
2022/08/27 08:32:09;;;;;;;11.10;6.50;;;;;;;;;;1826044;76;26255;-54
2022/08/27 08:34:36;;;;;;;9.75;6.03;;;;;;;;;;1821299;76;26342;-51
2022/08/27 08:37:04;;;;;;;8.95;6.35;;;;;;;;;;1834117;76;26684;-53
2022/08/27 08:39:31;;;;;;;12.33;6.47;;;;;;;;;;1828627;76;26344;-55
2022/08/27 08:42:00;;;;;;;10.32;6.17;;;;;;;;;;1825753;76;26299;-49
2022/08/27 08:44:37;;;;;;;7.45;5.83;;;;;;;;;;1822320;76;26315;-56
2022/08/27 08:47:16;;;;;;;6.83;5.72;;;;;;;;;;1833309;77;26256;-55
2022/08/27 08:49:57;;;;;;;7.72;5.62;;;;;;;;;;1825113;77;26756;-56
2022/08/27 08:52:28;;;;;;;6.05;5.10;;;;;;;;;;1830958;77;26209;-55
2022/08/27 08:55:14;;;;;;;9.78;5.30;;;;;;;;;;1830828;77;26709;-57
2022/08/27 08:57:43;;;;;;;7.70;5.65;;;;;;;;;;1826209;76;26672;-56
2022/08/27 09:00:11;;;;;;;9.25;5.50;;;;;;;;;;1829558;77;27072;-55
2022/08/27 09:02:39;;;;;;;6.22;5.05;;;;;;;;;;1824317;77;26265;-53
2022/08/27 09:05:07;;;;;;;6.15;5.12;;;;;;;;;;1829539;77;27161;-57
2022/08/27 09:07:37;;;;;;;6.00;5.15;;;;;;;;;;1825279;77;26290;-49
2022/08/27 09:10:11;;;;;;;5.47;4.97;;;;;;;;;;1827514;77;26299;-56
2022/08/27 09:12:39;;;;;;;8.30;5.15;;;;;;;;;;1821488;77;26316;-53
2022/08/27 09:15:09;;;;;;;5.42;4.87;;;;;;;;;;1829240;77;26669;-56
2022/08/27 09:17:36;;;;;;;6.92;5.55;;;;;;;;;;1822147;77;26292;-54
2022/08/27 09:20:06;;;;;;;6.25;5.20;;;;;;;;;;1833046;77;26268;-56
2022/08/27 09:22:44;;;;;;;5.17;4.70;;;;;;;;;;1828899;77;26225;-55
2022/08/27 09:25:15;;;;;;;5.33;4.83;;;;;;;;;;1821538;76;26378;-56
2022/08/27 09:27:42;;;;;;;5.28;4.78;;;;;;;;;;1838632;76;27659;-56
2022/08/27 09:30:11;;;;;;;5.40;4.70;;;;;;;;;;1835284;76;26334;-56
2022/08/27 09:32:39;;;;;;;7.20;5.12;;;;;;;;;;1835714;76;26270;-56
2022/08/27 09:35:10;;;;;;;7.55;4.95;;;;;;;;;;1839177;76;26273;-56
2022/08/27 09:37:42;;;;;;;7.12;4.80;;;;;;;;;;1845533;76;26300;-55
2022/08/27 09:40:16;;;;;;;6.10;4.92;;;;;;;;;;1838529;77;26285;-54
2022/08/27 09:42:48;;;;;;;9.28;5.10;;;;;;;;;;1819909;76;26800;-51
2022/08/27 09:45:17;;;;;;;5.20;4.67;;;;;;;;;;1865956;76;26301;-54
2022/08/27 09:47:45;;;;;;;5.40;4.90;;;;;;;;;;1869498;76;26288;-53
2022/08/27 09:50:14;;;;;;;9.10;5.47;;;;;;;;;;1876039;76;26308;-54
2022/08/27 09:52:50;;;;;;;9.10;5.30;;;;;;;;;;1864385;76;26272;-54
2022/08/27 09:55:27;;;;;;;8.40;5.75;;;;;;;;;;1862398;76;26261;-52
2022/08/27 09:57:55;;;;;;;9.95;6.30;;;;;;;;;;1868252;76;26257;-49
2022/08/27 10:00:24;;;;;;;7.75;5.85;;;;;;;;;;1866098;76;26340;-52
2022/08/27 10:02:52;;;;;;;11.03;6.62;;;;;;;;;;1862002;76;26347;-50
2022/08/27 10:05:33;;;;;;;9.48;6.33;;;;;;;;;;1871838;76;26269;-51
2022/08/27 10:08:04;;;;;;;10.53;5.95;;;;;;;;;;1867083;76;26269;-49
2022/08/27 10:10:39;;;;;;;7.03;6.03;;;;;;;;;;1859251;76;26515;-48
2022/08/27 10:13:11;;;;;;;8.83;6.53;;;;;;;;;;1872854;76;26265;-54
2022/08/27 10:15:56;;;;;;;10.78;6.70;;;;;;;;;;1838962;77;26272;-58
2022/08/27 10:18:36;;;;;;;9.28;6.40;;;;;;;;;;1870623;76;26342;-45
2022/08/27 10:21:05;;;;;;;7.37;6.65;;;;;;;;;;1869424;76;27456;-48
2022/08/27 10:23:34;;;;;;;10.00;6.90;;;;;;;;;;1867251;76;26286;-47
2022/08/27 10:26:18;;;;;;;9.23;6.53;;;;;;;;;;1866483;76;26323;-48
2022/08/27 10:28:50;;;;;;;12.10;6.80;;;;;;;;;;1861463;76;26266;-45
2022/08/27 10:31:30;;;;;;;10.48;6.35;;;;;;;;;;1865379;76;26265;-59
2022/08/27 10:34:15;;;;;;;11.12;6.75;;;;;;;;;;1856022;76;26313;-49
2022/08/27 10:36:53;;;;;;;10.68;6.97;;;;;;;;;;1854069;76;26310;-48
2022/08/27 10:39:34;;;;;;;8.75;6.72;;;;;;;;;;1857351;76;26319;-47
2022/08/27 10:42:05;;;;;;;10.10;6.67;;;;;;;;;;1867298;76;26266;-48
2022/08/27 10:44:41;;;;;;;11.60;7.17;;;;;;;;;;1852477;75;26312;-46
2022/08/27 10:47:10;;;;;;;12.18;6.92;;;;;;;;;;1835875;77;26379;-47
2022/08/27 10:49:44;;;;;;;9.18;6.65;;;;;;;;;;1836757;76;26285;-42
2022/08/27 10:52:15;;;;;;;9.53;7.20;;;;;;;;;;1837861;77;27622;-44
2022/08/27 10:54:49;;;;;;;8.50;6.90;;;;;;;;;;1834508;77;26377;-43
2022/08/27 10:57:21;;;;;;;14.78;7.12;;;;;;;;;;1833948;77;26269;-52
2022/08/27 10:59:50;;;;;;;10.43;6.87;;;;;;;;;;1836280;77;27841;-47
2022/08/27 11:02:32;;;;;;;10.13;6.58;;;;;;;;;;1837099;77;27414;-45
2022/08/27 11:05:00;;;;;;;15.00;7.83;;;;;;;;;;1832450;77;26698;-49
2022/08/27 11:07:32;;;;;;;8.18;7.00;;;;;;;;;;1832399;77;26703;-45
2022/08/27 11:10:01;;;;;;;10.85;6.97;;;;;;;;;;1842937;77;27276;-49
2022/08/27 11:12:30;;;;;;;7.75;6.95;;;;;;;;;;1841192;77;26725;-51
2022/08/27 11:14:59;;;;;;;9.78;7.35;;;;;;;;;;1827054;76;26261;-47
2022/08/27 11:17:31;;;;;;;13.00;7.60;;;;;;;;;;1832799;77;26282;-48
2022/08/27 11:20:08;;;;;;;11.48;6.90;;;;;;;;;;1839540;77;27383;-45
2022/08/27 11:22:46;;;;;;;8.00;6.80;;;;;;;;;;1834312;77;26285;-45
2022/08/27 11:25:15;;;;;;;11.08;7.05;;;;;;;;;;1841714;77;26265;-44
2022/08/27 11:27:43;;;;;;;10.70;6.83;;;;;;;;;;1839339;76;26300;-50
2022/08/27 11:30:17;;;;;;;11.25;7.47;;;;;;;;;;1829565;77;26254;-48
2022/08/27 11:33:01;;;;;;;9.45;7.08;;;;;;;;;;1837949;76;27158;-44
2022/08/27 11:35:33;;;;;;;13.13;7.40;;;;;;;;;;1845971;77;27333;-45
2022/08/27 11:38:02;;;;;;;12.47;6.65;;;;;;;;;;1842158;77;26265;-43
2022/08/27 11:40:30;;;;;;;11.10;7.87;;;;;;;;;;1838547;77;26249;-44
2022/08/27 11:42:59;;;;;;;10.63;7.25;;;;;;;;;;1836068;77;26358;-46
2022/08/27 11:45:37;;;;;;;11.25;7.60;;;;;;;;;;1861978;76;26289;-45
2022/08/27 11:48:02;;;;;;;12.98;7.35;;;;;;;;;;1877744;76;26912;-45
2022/08/27 11:50:30;;;;;;;10.78;7.17;;;;;;;;;;1861329;76;26731;-45
2022/08/27 11:52:59;;;;;;;14.65;7.15;;;;;;;;;;1874494;76;26261;-45
2022/08/27 11:55:30;;;;;;;7.62;6.83;;;;;;;;;;1861080;76;26198;-44
2022/08/27 11:58:09;;;;;;;11.05;7.22;;;;;;;;;;1873657;75;26261;-49
2022/08/27 12:00:38;;;;;;;12.40;7.40;;;;;;;;;;1863758;76;26213;-45
2022/08/27 12:03:09;;;;;;;14.05;7.08;;;;;;;;;;1865144;76;26319;-45
2022/08/27 12:05:38;;;;;;;11.57;7.15;;;;;;;;;;1876312;76;26257;-46
2022/08/27 12:08:13;;;;;;;10.68;7.42;;;;;;;;;;1871457;76;26249;-47
2022/08/27 12:10:58;;;;;;;15.18;7.40;;;;;;;;;;1857658;76;26410;-47
2022/08/27 12:13:42;;;;;;;10.30;7.22;;;;;;;;;;1866083;76;26343;-44
2022/08/27 12:16:28;;;;;;;10.30;7.05;;;;;;;;;;1873705;75;26901;-44
2022/08/27 12:18:56;;;;;;;12.73;7.62;;;;;;;;;;1866838;76;26260;-44
2022/08/27 12:21:34;;;;;;;16.02;6.97;;;;;;;;;;1870419;76;26337;-48
2022/08/27 12:24:09;;;;;;;15.45;7.25;;;;;;;;;;1858041;76;26291;-44
2022/08/27 12:26:38;;;;;;;10.63;6.40;;;;;;;;;;1848748;76;26785;-45
2022/08/27 12:29:24;;;;;;;10.05;6.75;;;;;;;;;;1857059;76;27466;-44
2022/08/27 12:31:53;;;;;;;10.60;7.40;;;;;;;;;;1870440;75;26343;-43
2022/08/27 12:34:21;;;;;;;11.78;6.92;;;;;;;;;;1879850;76;26275;-46
2022/08/27 12:36:49;;;;;;;13.15;7.08;;;;;;;;;;1866917;76;26322;-43
2022/08/27 12:39:18;;;;;;;10.13;7.20;;;;;;;;;;1857164;76;26736;-47
2022/08/27 12:41:47;;;;;;;14.15;7.28;;;;;;;;;;1855408;75;26245;-44
2022/08/27 12:44:28;;;;;;;14.73;6.75;;;;;;;;;;1848134;76;26506;-46
2022/08/27 12:46:57;;;;;;;12.20;6.25;;;;;;;;;;1851646;76;26256;-46
2022/08/27 12:49:26;;;;;;;16.12;6.72;;;;;;;;;;1858134;76;26248;-45
2022/08/27 12:51:55;;;;;;;15.65;7.20;;;;;;;;;;1858445;76;26724;-45
2022/08/27 12:54:41;;;;;;;14.00;7.03;;;;;;;;;;1855615;76;26432;-47
2022/08/27 12:57:13;;;;;;;12.88;6.85;;;;;;;;;;1865726;76;26287;-44
2022/08/27 12:59:42;;;;;;;10.25;6.37;;;;;;;;;;1859348;76;27166;-47
2022/08/27 13:02:16;;;;;;;13.58;6.60;;;;;;;;;;1860819;76;26253;-45
2022/08/27 13:04:43;;;;;;;11.28;6.70;;;;;;;;;;1870099;75;26264;-44
2022/08/27 13:07:11;;;;;;;10.65;6.55;;;;;;;;;;1859555;76;26277;-45
2022/08/27 13:09:39;;;;;;;8.98;6.28;;;;;;;;;;1858094;75;26755;-45
2022/08/27 13:12:08;;;;;;;9.60;6.90;;;;;;;;;;1858736;76;26326;-44
2022/08/27 13:14:39;;;;;;;12.98;6.53;;;;;;;;;;1852834;76;26261;-45
2022/08/27 13:17:08;;;;;;;14.55;6.83;;;;;;;;;;1856883;76;26685;-44
2022/08/27 13:19:37;;;;;;;10.75;6.80;;;;;;;;;;1860476;76;26890;-48
2022/08/27 13:22:05;;;;;;;8.78;6.60;;;;;;;;;;1857084;75;26692;-45
2022/08/27 13:24:34;;;;;;;8.65;6.90;;;;;;;;;;1856558;76;26349;-46
2022/08/27 13:27:03;;;;;;;8.10;6.37;;;;;;;;;;1868240;76;26366;-48
2022/08/27 13:29:32;;;;;;;8.50;6.60;;;;;;;;;;1856603;75;26810;-49
2022/08/27 13:31:59;;;;;;;9.25;6.30;;;;;;;;;;1859419;76;26257;-45
2022/08/27 13:34:27;;;;;;;10.35;6.75;;;;;;;;;;1856600;76;26252;-47
2022/08/27 13:37:04;;;;;;;11.93;7.53;;;;;;;;;;1864295;76;26337;-44
2022/08/27 13:39:36;;;;;;;10.35;6.53;;;;;;;;;;1864035;76;26308;-44
2022/08/27 13:42:05;;;;;;;11.70;6.55;;;;;;;;;;1854593;76;26260;-46
2022/08/27 13:44:37;;;;;;;13.70;6.50;;;;;;;;;;1860328;76;26244;-46
2022/08/27 13:47:09;;;;;;;11.45;6.70;;;;;;;;;;1824196;77;26393;-50
2022/08/27 13:49:37;;;;;;;9.15;6.70;;;;;;;;;;1815373;78;26637;-48
2022/08/27 13:52:24;;;;;;;10.53;6.85;;;;;;;;;;1814996;79;26545;-45
2022/08/27 13:54:53;;;;;;;9.78;5.92;;;;;;;;;;1821367;77;26345;-42
2022/08/27 13:57:25;;;;;;;12.80;6.42;;;;;;;;;;1821196;77;26376;-42
2022/08/27 13:59:52;;;;;;;9.35;6.53;;;;;;;;;;1796053;79;26287;-44
2022/08/27 14:02:30;;;;;;;10.05;6.10;;;;;;;;;;1807217;79;26334;-48
2022/08/27 14:05:11;;;;;;;11.40;6.40;;;;;;;;;;1829322;78;26260;-44
2022/08/27 14:07:40;;;;;;;7.50;6.00;;;;;;;;;;1820977;77;26578;-46
2022/08/27 14:10:09;;;;;;;8.70;6.45;;;;;;;;;;1801719;78;26306;-44
2022/08/27 14:12:38;;;;;;;8.78;6.78;;;;;;;;;;1792063;79;26295;-43
2022/08/27 14:15:22;;;;;;;10.13;6.53;;;;;;;;;;1797131;77;26831;-48
2022/08/27 14:17:49;;;;;;;8.18;6.35;;;;;;;;;;1834658;77;25739;-45
2022/08/27 14:20:18;;;;;;;11.15;6.30;;;;;;;;;;1812274;79;26287;-47
2022/08/27 14:22:46;;;;;;;8.10;6.30;;;;;;;;;;1840647;78;26644;-45
2022/08/27 14:25:13;;;;;;;12.82;6.35;;;;;;;;;;1815378;77;27443;-43
2022/08/27 14:27:41;;;;;;;8.95;6.10;;;;;;;;;;1810426;79;26372;-45
2022/08/27 14:30:10;;;;;;;7.28;6.53;;;;;;;;;;1813772;77;26280;-48
2022/08/27 14:32:38;;;;;;;11.65;6.40;;;;;;;;;;1837796;77;26217;-44
2022/08/27 14:35:06;;;;;;;9.23;6.50;;;;;;;;;;1838824;77;26748;-46
2022/08/27 14:37:33;;;;;;;10.88;6.70;;;;;;;;;;1838589;77;26273;-44
2022/08/27 14:40:00;;;;;;;6.87;6.20;;;;;;;;;;1845679;77;26584;-52
2022/08/27 14:42:28;;;;;;;8.68;6.58;;;;;;;;;;1844150;77;26261;-52
2022/08/27 14:44:55;;;;;;;9.90;6.40;;;;;;;;;;1843022;77;26248;-48
2022/08/27 14:47:23;;;;;;;7.25;6.50;;;;;;;;;;1847774;77;26844;-45
2022/08/27 14:49:50;;;;;;;10.95;6.70;;;;;;;;;;1841112;77;26369;-48
2022/08/27 14:52:17;;;;;;;8.33;6.70;;;;;;;;;;1847965;76;26248;-49
2022/08/27 14:54:44;;;;;;;11.88;6.60;;;;;;;;;;1856805;76;26306;-45
2022/08/27 14:57:12;;;;;;;12.05;6.58;;;;;;;;;;1850951;76;26260;-44
2022/08/27 14:59:39;;;;;;;11.25;6.30;;;;;;;;;;1836023;77;26282;-44